Time,TemperatureF,DewpointF,PressureIn,WindDirection,WindDirectionDegrees,WindSpeedMPH,WindSpeedGustMPH,Humidity,HourlyPrecipIn,Conditions,Clouds,dailyrainin,SoftwareType,DateUTC
2013-05-28 00:02:00,43.9,39.4,29.44,North,0,0.0,0.0,84,0.00,RA,SCT,0.00,WeatherDisplay:10.37,2013-05-28 08:02:00,
2013-05-28 00:07:00,44.2,40.0,29.44,North,0,2.3,0.0,85,0.00,RA,SCT,0.00,WeatherDisplay:10.37,2013-05-28 08:07:00,
2013-05-28 00:12:00,44.2,40.0,29.44,North,0,4.6,4.6,85,0.00,CLR,SCT,0.00,WeatherDisplay:10.37,2013-05-28 08:12:00,
2013-05-28 00:17:00,44.2,40.3,29.44,NNE,22,0.0,0.0,86,0.00,CLR,SCT,0.00,WeatherDisplay:10.37,2013-05-28 08:17:00,
2013-05-28 00:22:00,44.2,40.3,29.44,NNE,22,0.0,0.0,86,0.00,CLR,SCT,0.00,WeatherDisplay:10.37,2013-05-28 08:22:00,
2013-05-28 00:27:00,44.4,40.8,29.44,NE,45,3.5,0.0,87,0.00,CLR,SCT,0.00,WeatherDisplay:10.37,2013-05-28 08:27:00,
2013-05-28 00:32:00,44.2,40.6,29.44,ENE,68,0.0,0.0,87,0.00,CLR,SCT,0.00,WeatherDisplay:10.37,2013-05-28 08:32:00,
2013-05-28 00:37:00,44.2,40.9,29.44,ENE,68,0.0,0.0,88,0.00,CLR,SCT,0.00,WeatherDisplay:10.37,2013-05-28 08:37:00,
2013-05-28 00:42:00,44.6,41.3,29.44,ENE,68,0.0,0.0,88,0.00,CLR,SCT,0.00,WeatherDisplay:10.37,2013-05-28 08:42:00,
2013-05-28 00:47:00,45.1,42.1,29.44,ENE,68,0.0,0.0,89,0.00,CLR,SCT,0.00,WeatherDisplay:10.37,2013-05-28 08:47:00,
2013-05-28 00:52:00,45.1,42.1,29.44,East,90,0.0,0.0,89,0.00,CLR,SCT,0.00,WeatherDisplay:10.37,2013-05-28 08:52:00,
2013-05-28 00:57:00,45.1,42.1,29.44,East,90,0.0,0.0,89,0.00,CLR,SCT,0.00,WeatherDisplay:10.37,2013-05-28 08:57:00,
2013-05-28 01:02:00,45.1,42.4,29.44,East,90,0.0,0.0,90,0.00,CLR,SCT,0.00,WeatherDisplay:10.37,2013-05-28 09:02:00,
2013-05-28 01:07:00,44.8,42.0,29.44,East,90,2.3,0.0,90,0.00,CLR,SCT,0.00,WeatherDisplay:10.37,2013-05-28 09:07:00,
2013-05-28 01:12:00,44.2,41.5,29.44,East,90,0.0,0.0,90,0.00,CLR,SCT,0.00,WeatherDisplay:10.37,2013-05-28 09:12:00,
2013-05-28 01:17:00,44.4,41.7,29.44,East,90,2.3,0.0,90,0.00,CLR,SCT,0.00,WeatherDisplay:10.37,2013-05-28 09:17:00,
2013-05-28 01:22:00,44.8,42.0,29.44,East,90,0.0,0.0,90,0.00,CLR,SCT,0.00,WeatherDisplay:10.37,2013-05-28 09:22:00,
2013-05-28 01:27:00,44.6,41.8,29.44,East,90,0.0,0.0,90,0.00,CLR,SCT,0.00,WeatherDisplay:10.37,2013-05-28 09:27:00,
2013-05-28 01:32:00,44.6,41.8,29.44,ESE,112,0.0,0.0,90,0.00,CLR,SCT,0.00,WeatherDisplay:10.37,2013-05-28 09:32:00,
2013-05-28 01:37:00,44.1,41.3,29.44,ESE,112,0.0,0.0,90,0.00,CLR,SCT,0.00,WeatherDisplay:10.37,2013-05-28 09:37:00,
2013-05-28 01:42:00,43.9,41.1,29.44,ESE,112,0.0,0.0,90,0.00,CLR,SCT,0.00,WeatherDisplay:10.37,2013-05-28 09:42:00,
2013-05-28 01:47:00,44.1,41.3,29.44,ESE,112,0.0,0.0,90,0.00,CLR,SCT,0.00,WeatherDisplay:10.37,2013-05-28 09:47:00,
2013-05-28 01:52:00,45.0,42.2,29.44,ESE,112,0.0,0.0,90,0.00,CLR,SCT,0.00,WeatherDisplay:10.37,2013-05-28 09:52:00,
2013-05-28 01:57:00,45.1,42.7,29.44,ESE,112,2.3,0.0,91,0.00,CLR,SCT,0.00,WeatherDisplay:10.37,2013-05-28 09:57:00,
2013-05-28 02:02:00,45.1,42.7,29.44,ESE,112,4.6,4.6,91,0.00,CLR,SCT,0.00,WeatherDisplay:10.37,2013-05-28 10:02:00,
2013-05-28 02:07:00,45.1,42.7,29.44,ESE,112,0.0,0.0,91,0.00,CLR,SCT,0.00,WeatherDisplay:10.37,2013-05-28 10:07:00,
2013-05-28 02:12:00,45.1,42.7,29.44,ESE,112,0.0,0.0,91,0.00,CLR,SCT,0.00,WeatherDisplay:10.37,2013-05-28 10:12:00,
2013-05-28 02:17:00,45.3,42.8,29.44,ESE,112,2.3,0.0,91,0.00,CLR,SCT,0.00,WeatherDisplay:10.37,2013-05-28 10:17:00,
2013-05-28 02:22:00,45.0,42.5,29.44,SW,225,3.5,0.0,91,0.00,CLR,SCT,0.00,WeatherDisplay:10.37,2013-05-28 10:22:00,
2013-05-28 02:27:00,45.5,43.0,29.44,SSW,202,2.3,0.0,91,0.00,CLR,SCT,0.00,WeatherDisplay:10.37,2013-05-28 10:27:00,
2013-05-28 02:32:00,45.5,43.0,29.41,South,180,3.1,0.0,91,0.00,CLR,SCT,0.00,WeatherDisplay:10.37,2013-05-28 10:32:00,
2013-05-28 02:37:00,45.1,42.7,29.41,SW,225,0.0,0.0,91,0.00,CLR,SCT,0.00,WeatherDisplay:10.37,2013-05-28 10:37:00,
2013-05-28 02:42:00,45.1,42.7,29.41,SW,225,0.0,0.0,91,0.00,CLR,SCT,0.00,WeatherDisplay:10.37,2013-05-28 10:42:00,
2013-05-28 02:47:00,45.0,42.5,29.41,SSW,202,3.5,3.5,91,0.00,CLR,SCT,0.00,WeatherDisplay:10.37,2013-05-28 10:47:00,
2013-05-28 02:52:00,44.6,42.1,29.41,SSW,202,2.6,0.0,91,0.00,CLR,SCT,0.00,WeatherDisplay:10.37,2013-05-28 10:52:00,
2013-05-28 02:57:00,44.1,41.6,29.41,SSW,202,2.3,0.0,91,0.00,CLR,SCT,0.00,WeatherDisplay:10.37,2013-05-28 10:57:00,
2013-05-28 03:02:00,44.1,41.3,29.41,SSW,202,0.0,0.0,90,0.00,CLR,SCT,0.00,WeatherDisplay:10.37,2013-05-28 11:02:00,
2013-05-28 03:07:00,43.9,41.1,29.41,SSW,202,2.3,0.0,90,0.00,CLR,SCT,0.00,WeatherDisplay:10.37,2013-05-28 11:07:00,
2013-05-28 03:12:00,43.7,41.0,29.41,SSW,202,2.3,0.0,90,0.00,CLR,SCT,0.00,WeatherDisplay:10.37,2013-05-28 11:12:00,
2013-05-28 03:17:00,43.5,40.5,29.41,SSW,202,2.3,0.0,89,0.00,CLR,SCT,0.00,WeatherDisplay:10.37,2013-05-28 11:17:00,
2013-05-28 03:22:00,43.5,40.5,29.41,SSW,202,2.3,0.0,89,0.00,CLR,SCT,0.00,WeatherDisplay:10.37,2013-05-28 11:22:00,
2013-05-28 03:27:00,43.5,40.5,29.41,South,180,3.5,0.0,89,0.00,CLR,SCT,0.00,WeatherDisplay:10.37,2013-05-28 11:27:00,
2013-05-28 03:32:00,43.2,40.1,29.41,South,180,2.3,0.0,89,0.00,CLR,SCT,0.00,WeatherDisplay:10.37,2013-05-28 11:32:00,
2013-05-28 03:37:00,43.2,40.1,29.41,SSE,158,2.3,0.0,89,0.00,CLR,SCT,0.00,WeatherDisplay:10.37,2013-05-28 11:37:00,
2013-05-28 03:42:00,42.8,39.8,29.41,SSE,158,0.0,0.0,89,0.00,CLR,SCT,0.00,WeatherDisplay:10.37,2013-05-28 11:42:00,
2013-05-28 03:47:00,43.0,40.0,29.41,South,180,3.1,0.0,89,0.00,CLR,SCT,0.00,WeatherDisplay:10.37,2013-05-28 11:47:00,
2013-05-28 03:52:00,43.0,40.0,29.41,SSE,158,3.1,0.0,89,0.00,CLR,SCT,0.00,WeatherDisplay:10.37,2013-05-28 11:52:00,
2013-05-28 03:58:00,43.5,40.5,29.41,SSE,158,2.3,0.0,89,0.00,CLR,SCT,0.00,WeatherDisplay:10.37,2013-05-28 11:58:00,
2013-05-28 04:03:00,43.5,40.5,29.41,SSE,158,3.5,3.5,89,0.00,CLR,SCT,0.00,WeatherDisplay:10.37,2013-05-28 12:03:00,
2013-05-28 04:08:00,43.3,40.3,29.41,SSE,158,2.2,0.0,89,0.00,CLR,SCT,0.00,WeatherDisplay:10.37,2013-05-28 12:08:00,
2013-05-28 04:13:00,42.8,39.8,29.41,SSE,158,0.0,0.0,89,0.00,CLR,SCT,0.00,WeatherDisplay:10.37,2013-05-28 12:13:00,
2013-05-28 04:18:00,43.2,40.4,29.41,SSE,158,0.0,0.0,90,0.00,CLR,SCT,0.00,WeatherDisplay:10.37,2013-05-28 12:18:00,
2013-05-28 04:23:00,43.0,40.2,29.41,SSE,158,2.3,0.0,90,0.00,CLR,SCT,0.00,WeatherDisplay:10.37,2013-05-28 12:23:00,
2013-05-28 04:28:00,42.6,39.9,29.41,SSE,158,0.0,0.0,90,0.00,CLR,SCT,0.00,WeatherDisplay:10.37,2013-05-28 12:28:00,
2013-05-28 04:33:00,42.6,40.2,29.41,SSE,158,0.0,0.0,91,0.00,CLR,SCT,0.00,WeatherDisplay:10.37,2013-05-28 12:33:00,
2013-05-28 04:38:00,42.6,40.2,29.41,SSE,158,0.0,0.0,91,0.00,CLR,SCT,0.00,WeatherDisplay:10.37,2013-05-28 12:38:00,
2013-05-28 04:43:00,43.2,40.7,29.41,SSE,158,0.0,0.0,91,0.00,CLR,SCT,0.00,WeatherDisplay:10.37,2013-05-28 12:43:00,
2013-05-28 04:48:00,43.5,41.1,29.41,SSE,158,0.0,0.0,91,0.00,CLR,SCT,0.00,WeatherDisplay:10.37,2013-05-28 12:48:00,
2013-05-28 04:53:00,44.2,42.1,29.41,SSE,158,0.0,0.0,92,0.00,CLR,SCT,0.00,WeatherDisplay:10.37,2013-05-28 12:53:00,
2013-05-28 04:58:00,44.8,42.6,29.41,SSE,158,0.0,0.0,92,0.00,CLR,SCT,0.00,WeatherDisplay:10.37,2013-05-28 12:58:00,
2013-05-28 05:03:00,45.5,43.3,29.41,SSE,158,3.5,3.5,92,0.00,CLR,SCT,0.00,WeatherDisplay:10.37,2013-05-28 13:03:00,
2013-05-28 05:08:00,45.9,43.7,29.41,SSE,158,3.5,3.5,92,0.00,CLR,SCT,0.00,WeatherDisplay:10.37,2013-05-28 13:08:00,
2013-05-28 05:13:00,46.0,44.1,29.41,SSE,158,2.3,2.3,93,0.00,CLR,SCT,0.00,WeatherDisplay:10.37,2013-05-28 13:13:00,
2013-05-28 05:18:00,46.0,44.1,29.41,SSE,158,2.3,0.0,93,0.00,CLR,SCT,0.00,WeatherDisplay:10.37,2013-05-28 13:18:00,
2013-05-28 05:23:00,46.0,44.1,29.41,SSE,158,2.3,0.0,93,0.00,CLR,SCT,0.00,WeatherDisplay:10.37,2013-05-28 13:23:00,
2013-05-28 05:28:00,45.3,43.4,29.41,SSE,158,2.6,0.0,93,0.00,CLR,SCT,0.00,WeatherDisplay:10.37,2013-05-28 13:28:00,
2013-05-28 05:33:00,46.4,44.5,29.38,SSE,158,3.5,3.5,93,0.00,CLR,SCT,0.00,WeatherDisplay:10.37,2013-05-28 13:33:00,
2013-05-28 05:38:00,46.9,45.0,29.38,SSE,158,3.5,3.5,93,0.00,CLR,SCT,0.00,WeatherDisplay:10.37,2013-05-28 13:38:00,
2013-05-28 05:43:00,47.3,45.4,29.38,SSE,158,3.5,3.5,93,0.00,CLR,SCT,0.00,WeatherDisplay:10.37,2013-05-28 13:43:00,
2013-05-28 05:48:00,47.3,45.7,29.38,SSE,158,3.5,3.5,94,0.00,CLR,SCT,0.00,WeatherDisplay:10.37,2013-05-28 13:48:00,
2013-05-28 05:53:00,47.5,45.8,29.38,SSE,158,2.6,0.0,94,0.00,CLR,SCT,0.00,WeatherDisplay:10.37,2013-05-28 13:53:00,
2013-05-28 05:58:00,47.7,46.0,29.38,SSE,158,3.5,3.5,94,0.00,CLR,SCT,0.00,WeatherDisplay:10.37,2013-05-28 13:58:00,
2013-05-28 06:03:00,48.0,46.4,29.38,SSE,158,3.5,3.5,94,0.00,CLR,SCT,0.00,WeatherDisplay:10.37,2013-05-28 14:03:00,
2013-05-28 06:08:00,48.2,46.6,29.38,SSE,158,3.5,3.5,94,0.00,CLR,SCT,0.00,WeatherDisplay:10.37,2013-05-28 14:08:00,
2013-05-28 06:13:00,47.8,46.2,29.38,SSE,158,3.5,3.5,94,0.00,CLR,SCT,0.00,WeatherDisplay:10.37,2013-05-28 14:13:00,
2013-05-28 06:18:00,47.5,45.8,29.38,SSE,158,3.5,3.5,94,0.00,CLR,SCT,0.00,WeatherDisplay:10.37,2013-05-28 14:18:00,
2013-05-28 06:23:00,47.3,45.7,29.38,SE,135,3.5,3.5,94,0.00,CLR,SCT,0.00,WeatherDisplay:10.37,2013-05-28 14:23:00,
2013-05-28 06:28:00,46.9,45.6,29.38,SE,135,3.5,3.5,95,0.00,CLR,SCT,0.00,WeatherDisplay:10.37,2013-05-28 14:28:00,
2013-05-28 06:33:00,45.9,44.5,29.38,SE,135,3.5,3.5,95,0.00,CLR,SCT,0.00,WeatherDisplay:10.37,2013-05-28 14:33:00,
2013-05-28 06:38:00,45.1,43.8,29.38,SE,135,2.6,2.6,95,0.00,CLR,SCT,0.00,WeatherDisplay:10.37,2013-05-28 14:38:00,
2013-05-28 06:43:00,44.4,43.1,29.38,SE,135,3.5,3.5,95,0.00,CLR,SCT,0.00,WeatherDisplay:10.37,2013-05-28 14:43:00,
2013-05-28 06:48:00,44.2,42.6,29.38,SE,135,2.3,0.0,94,0.00,CLR,SCT,0.00,WeatherDisplay:10.37,2013-05-28 14:48:00,
2013-05-28 06:53:00,44.1,42.2,29.38,SE,135,2.3,0.0,93,0.00,CLR,SCT,0.00,WeatherDisplay:10.37,2013-05-28 14:53:00,
2013-05-28 06:58:00,44.2,42.1,29.38,SE,135,2.6,2.6,92,0.00,CLR,SCT,0.00,WeatherDisplay:10.37,2013-05-28 14:58:00,
2013-05-28 07:03:00,44.8,41.7,29.38,SE,135,0.0,0.0,89,0.00,CLR,SCT,0.00,WeatherDisplay:10.37,2013-05-28 15:03:00,
2013-05-28 07:08:00,44.8,41.1,29.38,SE,135,3.5,0.0,87,0.00,CLR,SCT,0.00,WeatherDisplay:10.37,2013-05-28 15:08:00,
2013-05-28 07:13:00,45.1,40.9,29.38,SE,135,3.5,0.0,85,0.00,CLR,SCT,0.00,WeatherDisplay:10.37,2013-05-28 15:13:00,
2013-05-28 07:18:00,45.9,41.0,29.38,SE,135,0.0,0.0,83,0.00,CLR,SCT,0.00,WeatherDisplay:10.37,2013-05-28 15:18:00,
2013-05-28 07:23:00,46.2,40.4,29.38,SE,135,3.1,0.0,80,0.00,CLR,SCT,0.00,WeatherDisplay:10.37,2013-05-28 15:23:00,
2013-05-28 07:28:00,46.4,39.6,29.38,SE,135,2.3,0.0,77,0.00,CLR,SCT,0.00,WeatherDisplay:10.37,2013-05-28 15:28:00,
2013-05-28 07:33:00,47.1,39.6,29.38,SE,135,0.0,0.0,75,0.00,CLR,SCT,0.00,WeatherDisplay:10.37,2013-05-28 15:33:00,
2013-05-28 07:38:00,48.0,40.1,29.38,SE,135,0.0,0.0,74,0.00,CLR,SCT,0.00,WeatherDisplay:10.37,2013-05-28 15:38:00,
2013-05-28 07:43:00,48.0,39.1,29.38,NNW,338,3.5,0.0,71,0.00,CLR,SCT,0.00,WeatherDisplay:10.37,2013-05-28 15:43:00,
2013-05-28 07:48:00,48.0,38.3,29.38,NNW,338,2.3,0.0,69,0.00,CLR,SCT,0.00,WeatherDisplay:10.37,2013-05-28 15:48:00,
2013-05-28 07:53:00,48.6,38.5,29.38,NNW,338,0.0,0.0,68,0.00,CLR,SCT,0.00,WeatherDisplay:10.37,2013-05-28 15:53:00,
2013-05-28 07:58:00,48.6,38.1,29.38,NNW,338,0.0,0.0,67,0.00,CLR,SCT,0.00,WeatherDisplay:10.37,2013-05-28 15:58:00,
2013-05-28 08:03:00,48.2,38.1,29.38,NNW,338,0.0,0.0,68,0.00,CLR,SCT,0.00,WeatherDisplay:10.37,2013-05-28 16:03:00,
2013-05-28 08:08:00,48.0,38.3,29.38,NNW,338,4.6,4.6,69,0.00,CLR,SCT,0.00,WeatherDisplay:10.37,2013-05-28 16:08:00,
2013-05-28 08:13:00,48.2,38.5,29.38,NNW,338,2.3,0.0,69,0.00,CLR,SCT,0.00,WeatherDisplay:10.37,2013-05-28 16:13:00,
2013-05-28 08:18:00,48.2,38.5,29.38,NNW,338,0.0,0.0,69,0.00,CLR,SCT,0.00,WeatherDisplay:10.37,2013-05-28 16:18:00,
2013-05-28 08:23:00,48.2,38.1,29.38,NNW,338,4.6,4.6,68,0.00,CLR,SCT,0.00,WeatherDisplay:10.37,2013-05-28 16:23:00,
2013-05-28 08:28:00,48.0,38.0,29.38,NNW,338,4.6,4.6,68,0.00,CLR,SCT,0.00,WeatherDisplay:10.37,2013-05-28 16:28:00,
2013-05-28 08:33:00,48.4,38.3,29.38,NNW,338,3.5,3.5,68,0.00,CLR,SCT,0.00,WeatherDisplay:10.37,2013-05-28 16:33:00,
2013-05-28 08:38:00,48.6,38.5,29.38,NNW,338,2.3,0.0,68,0.00,CLR,SCT,0.00,WeatherDisplay:10.37,2013-05-28 16:38:00,
2013-05-28 08:43:00,49.3,39.2,29.38,NNW,338,0.0,0.0,68,0.00,CLR,SCT,0.00,WeatherDisplay:10.37,2013-05-28 16:43:00,
2013-05-28 08:48:00,49.5,39.0,29.38,NNW,338,4.6,4.6,67,0.00,CLR,SCT,0.00,WeatherDisplay:10.37,2013-05-28 16:48:00,
2013-05-28 08:53:00,49.8,39.3,29.38,NNW,338,2.2,0.0,67,0.00,CLR,SCT,0.00,WeatherDisplay:10.37,2013-05-28 16:53:00,
2013-05-28 08:58:00,50.2,38.9,29.38,NNW,338,0.0,0.0,65,0.00,CLR,SCT,0.00,WeatherDisplay:10.37,2013-05-28 16:58:00,
2013-05-28 09:03:00,50.5,39.2,29.38,NNW,338,0.0,0.0,65,0.00,CLR,SCT,0.00,WeatherDisplay:10.37,2013-05-28 17:03:00,
2013-05-28 09:08:00,50.5,38.4,29.38,NNW,338,3.5,3.5,63,0.00,CLR,SCT,0.00,WeatherDisplay:10.37,2013-05-28 17:08:00,
2013-05-28 09:13:00,50.7,38.6,29.38,NNW,338,4.6,4.6,63,0.00,CLR,SCT,0.00,WeatherDisplay:10.37,2013-05-28 17:13:00,
2013-05-28 09:19:00,51.1,38.9,29.38,NNW,338,4.6,4.6,63,0.00,CLR,SCT,0.00,WeatherDisplay:10.37,2013-05-28 17:19:00,
2013-05-28 09:24:00,51.1,38.5,29.38,NNW,338,4.6,4.6,62,0.00,CLR,SCT,0.00,WeatherDisplay:10.37,2013-05-28 17:24:00,
2013-05-28 09:29:00,51.4,38.8,29.38,NNW,338,4.6,4.6,62,0.00,CLR,SCT,0.00,WeatherDisplay:10.37,2013-05-28 17:29:00,
2013-05-28 09:34:00,52.0,38.9,29.38,NNW,338,0.0,0.0,61,0.00,CLR,SCT,0.00,WeatherDisplay:10.37,2013-05-28 17:34:00,
2013-05-28 09:39:00,53.6,39.6,29.38,NW,315,4.6,4.6,59,0.00,CLR,SCT,0.00,WeatherDisplay:10.37,2013-05-28 17:39:00,
2013-05-28 09:44:00,54.1,38.8,29.38,NW,315,3.5,0.0,56,0.00,CLR,SCT,0.00,WeatherDisplay:10.37,2013-05-28 17:44:00,
2013-05-28 09:49:00,54.9,39.0,29.38,NNW,338,4.6,4.6,55,0.00,CLR,SCT,0.00,WeatherDisplay:10.37,2013-05-28 17:49:00,
2013-05-28 09:54:00,55.4,38.5,29.38,NW,315,4.6,4.6,53,0.00,CLR,SCT,0.00,WeatherDisplay:10.37,2013-05-28 17:54:00,
2013-05-28 09:59:00,56.1,38.7,29.38,NNW,338,4.6,4.6,52,0.00,CLR,SCT,0.00,WeatherDisplay:10.37,2013-05-28 17:59:00,
2013-05-28 10:04:00,56.1,38.2,29.38,NNW,338,3.5,0.0,51,0.00,CLR,SCT,0.00,WeatherDisplay:10.37,2013-05-28 18:04:00,
2013-05-28 10:09:00,56.7,38.7,29.38,NW,315,0.0,0.0,51,0.00,CLR,SCT,0.00,WeatherDisplay:10.37,2013-05-28 18:09:00,
2013-05-28 10:14:00,56.7,38.2,29.38,NNW,338,4.6,4.6,50,0.00,CLR,SCT,0.00,WeatherDisplay:10.37,2013-05-28 18:14:00,
2013-05-28 10:19:00,56.8,38.9,29.38,NNW,338,4.6,4.6,51,0.00,CLR,SCT,0.00,WeatherDisplay:10.37,2013-05-28 18:19:00,
2013-05-28 10:24:00,57.2,38.7,29.38,NNW,338,3.5,3.5,50,0.00,CLR,SCT,0.00,WeatherDisplay:10.37,2013-05-28 18:24:00,
2013-05-28 10:29:00,57.4,38.9,29.38,NW,315,3.5,3.5,50,0.00,CLR,SCT,0.00,WeatherDisplay:10.37,2013-05-28 18:29:00,
2013-05-28 10:34:00,58.5,39.4,29.35,North,0,3.5,3.5,49,0.00,CLR,SCT,0.00,WeatherDisplay:10.37,2013-05-28 18:34:00,
2013-05-28 10:39:00,59.7,39.4,29.35,North,0,0.0,0.0,47,0.00,CLR,SCT,0.00,WeatherDisplay:10.37,2013-05-28 18:39:00,
2013-05-28 10:44:00,60.4,39.5,29.35,North,0,3.5,3.5,46,0.00,CLR,SCT,0.00,WeatherDisplay:10.37,2013-05-28 18:44:00,
2013-05-28 10:49:00,61.3,39.8,29.35,North,0,4.0,0.0,45,0.00,CLR,SCT,0.00,WeatherDisplay:10.37,2013-05-28 18:49:00,
2013-05-28 10:54:00,60.6,39.1,29.35,NNW,338,4.6,4.6,45,0.00,CLR,SCT,0.00,WeatherDisplay:10.37,2013-05-28 18:54:00,
2013-05-28 10:59:00,60.3,39.4,29.35,NNW,338,4.0,4.0,46,0.00,CLR,SCT,0.00,WeatherDisplay:10.37,2013-05-28 18:59:00,
2013-05-28 11:04:00,60.8,39.9,29.35,North,0,3.5,0.0,46,0.00,CLR,SCT,0.00,WeatherDisplay:10.37,2013-05-28 19:04:00,
2013-05-28 11:09:00,60.3,39.4,29.35,NW,315,5.8,5.8,46,0.00,CLR,SCT,0.00,WeatherDisplay:10.37,2013-05-28 19:09:00,
2013-05-28 11:14:00,59.2,38.9,29.35,NNW,338,8.1,8.1,47,0.00,CLR,SCT,0.00,WeatherDisplay:10.37,2013-05-28 19:14:00,
2013-05-28 11:19:00,58.6,39.0,29.35,NNW,338,7.1,7.1,48,0.00,CLR,SCT,0.00,WeatherDisplay:10.37,2013-05-28 19:19:00,
2013-05-28 11:24:00,57.9,38.9,29.35,NW,315,5.8,5.8,49,0.00,CLR,SCT,0.00,WeatherDisplay:10.37,2013-05-28 19:24:00,
2013-05-28 11:29:00,58.3,40.2,29.35,NW,315,4.6,4.6,51,0.00,CLR,SCT,0.00,WeatherDisplay:10.37,2013-05-28 19:29:00,
2013-05-28 11:34:00,58.5,39.9,29.35,WNW,292,7.1,7.1,50,0.00,CLR,SCT,0.00,WeatherDisplay:10.37,2013-05-28 19:34:00,
2013-05-28 11:39:00,57.9,39.9,29.35,NW,315,6.2,6.2,51,0.00,CLR,SCT,0.00,WeatherDisplay:10.37,2013-05-28 19:39:00,
2013-05-28 11:44:00,58.5,39.9,29.35,NW,315,5.9,5.9,50,0.00,CLR,SCT,0.00,WeatherDisplay:10.37,2013-05-28 19:44:00,
2013-05-28 11:49:00,58.8,40.2,29.35,NNW,338,4.9,4.9,50,0.00,CLR,SCT,0.00,WeatherDisplay:10.37,2013-05-28 19:49:00,
2013-05-28 11:54:00,59.0,39.9,29.35,NW,315,4.9,4.9,49,0.00,CLR,SCT,0.00,WeatherDisplay:10.37,2013-05-28 19:54:00,
2013-05-28 11:59:00,59.9,40.1,29.35,WNW,292,5.8,5.8,48,0.00,CLR,SCT,0.00,WeatherDisplay:10.37,2013-05-28 19:59:00,
2013-05-28 12:04:00,60.1,39.8,29.35,NNW,338,6.9,6.9,47,0.00,CLR,SCT,0.00,WeatherDisplay:10.37,2013-05-28 20:04:00,
2013-05-28 12:09:00,60.3,39.9,29.35,NNW,338,5.8,5.8,47,0.00,CLR,SCT,0.00,WeatherDisplay:10.37,2013-05-28 20:09:00,
2013-05-28 12:14:00,60.1,40.3,29.35,NW,315,6.9,6.9,48,0.00,CLR,SCT,0.00,WeatherDisplay:10.37,2013-05-28 20:14:00,
2013-05-28 12:19:00,61.0,41.1,29.38,NNE,22,8.1,8.1,48,0.00,CLR,SCT,0.00,WeatherDisplay:10.37,2013-05-28 20:19:00,
2013-05-28 12:24:00,61.0,40.6,29.38,NNW,338,5.9,5.9,47,0.00,CLR,SCT,0.00,WeatherDisplay:10.37,2013-05-28 20:24:00,
2013-05-28 12:29:00,61.2,40.8,29.38,North,0,5.8,5.8,47,0.00,CLR,SCT,0.00,WeatherDisplay:10.37,2013-05-28 20:29:00,
2013-05-28 12:34:00,61.7,41.3,29.35,NNW,338,5.8,5.8,47,0.00,CLR,SCT,0.00,WeatherDisplay:10.37,2013-05-28 20:34:00,
2013-05-28 12:39:00,61.7,40.7,29.35,NW,315,5.8,5.8,46,0.00,CLR,SCT,0.00,WeatherDisplay:10.37,2013-05-28 20:39:00,
2013-05-28 12:44:00,61.3,40.4,29.35,NW,315,6.7,6.7,46,0.00,CLR,SCT,0.00,WeatherDisplay:10.37,2013-05-28 20:44:00,
2013-05-28 12:49:00,62.2,41.2,29.35,NNW,338,6.7,6.7,46,0.00,CLR,SCT,0.00,WeatherDisplay:10.37,2013-05-28 20:49:00,
2013-05-28 12:54:00,62.6,40.9,29.35,NW,315,5.8,5.8,45,0.00,CLR,SCT,0.00,WeatherDisplay:10.37,2013-05-28 20:54:00,
2013-05-28 12:59:00,63.0,41.3,29.35,WNW,292,5.8,5.8,45,0.00,CLR,SCT,0.00,WeatherDisplay:10.37,2013-05-28 20:59:00,
2013-05-28 13:04:00,64.0,42.3,29.35,NNW,338,6.2,6.2,45,0.00,CLR,SCT,0.00,WeatherDisplay:10.37,2013-05-28 21:04:00,
2013-05-28 13:09:00,64.2,41.8,29.35,NW,315,5.8,5.8,44,0.00,CLR,SCT,0.00,WeatherDisplay:10.37,2013-05-28 21:09:00,
2013-05-28 13:14:00,64.6,41.6,29.35,NNW,338,6.9,6.9,43,0.00,CLR,SCT,0.00,WeatherDisplay:10.37,2013-05-28 21:14:00,
2013-05-28 13:19:00,65.5,42.4,29.35,NNW,338,6.9,6.9,43,0.00,CLR,SCT,0.00,WeatherDisplay:10.37,2013-05-28 21:19:00,
2013-05-28 13:24:00,64.8,41.7,29.35,NW,315,5.8,5.8,43,0.00,CLR,SCT,0.00,WeatherDisplay:10.37,2013-05-28 21:24:00,
2013-05-28 13:29:00,64.4,40.8,29.35,NNW,338,5.8,5.9,42,0.00,CLR,SCT,0.00,WeatherDisplay:10.37,2013-05-28 21:29:00,
2013-05-28 13:34:00,65.7,41.9,29.35,NW,315,5.8,5.8,42,0.00,CLR,SCT,0.00,WeatherDisplay:10.37,2013-05-28 21:34:00,
2013-05-28 13:39:00,65.5,41.8,29.35,North,0,6.2,6.2,42,0.00,CLR,SCT,0.00,WeatherDisplay:10.37,2013-05-28 21:39:00,
2013-05-28 13:44:00,65.5,41.8,29.35,NW,315,7.6,7.6,42,0.00,CLR,SCT,0.00,WeatherDisplay:10.37,2013-05-28 21:44:00,
2013-05-28 13:49:00,65.8,41.5,29.32,NNW,338,8.1,8.1,41,0.00,CLR,SCT,0.00,WeatherDisplay:10.37,2013-05-28 21:49:00,
2013-05-28 13:54:00,66.0,41.6,29.32,North,0,4.6,4.6,41,0.00,CLR,SCT,0.00,WeatherDisplay:10.37,2013-05-28 21:54:00,
2013-05-28 13:59:00,66.0,41.0,29.32,NNW,338,6.9,6.9,40,0.00,CLR,SCT,0.00,WeatherDisplay:10.37,2013-05-28 21:59:00,
2013-05-28 14:04:00,66.9,41.1,29.35,NW,315,5.8,5.8,39,0.00,CLR,SCT,0.00,WeatherDisplay:10.37,2013-05-28 22:04:00,
2013-05-28 14:09:00,67.1,40.6,29.35,NNW,338,5.8,5.8,38,0.00,CLR,SCT,0.00,WeatherDisplay:10.37,2013-05-28 22:09:00,
2013-05-28 14:14:00,68.4,40.4,29.35,NNW,338,4.9,4.9,36,0.00,CLR,SCT,0.00,WeatherDisplay:10.37,2013-05-28 22:14:00,
2013-05-28 14:19:00,68.9,40.1,29.35,NW,315,7.6,7.6,35,0.00,CLR,SCT,0.00,WeatherDisplay:10.37,2013-05-28 22:19:00,
2013-05-28 14:24:00,69.8,40.2,29.35,North,0,4.6,4.6,34,0.00,CLR,SCT,0.00,WeatherDisplay:10.37,2013-05-28 22:24:00,
2013-05-28 14:29:00,70.0,40.3,29.35,NNW,338,4.6,4.6,34,0.00,CLR,SCT,0.00,WeatherDisplay:10.37,2013-05-28 22:29:00,
2013-05-28 14:34:00,69.3,39.7,29.35,NW,315,5.8,5.8,34,0.00,CLR,SCT,0.00,WeatherDisplay:10.37,2013-05-28 22:34:00,
2013-05-28 14:39:00,69.4,39.8,29.35,NNW,338,5.8,5.8,34,0.00,CLR,SCT,0.00,WeatherDisplay:10.37,2013-05-28 22:39:00,
2013-05-28 14:44:00,68.7,39.2,29.35,NNW,338,8.1,8.1,34,0.00,CLR,SCT,0.00,WeatherDisplay:10.37,2013-05-28 22:44:00,
2013-05-28 14:49:00,68.7,39.2,29.35,NNW,338,8.1,8.1,34,0.00,CLR,SCT,0.00,WeatherDisplay:10.37,2013-05-28 22:49:00,
2013-05-28 14:55:00,69.3,39.7,29.35,NNW,338,6.9,6.9,34,0.00,CLR,SCT,0.00,WeatherDisplay:10.37,2013-05-28 22:55:00,
2013-05-28 15:00:00,68.9,39.4,29.35,WNW,292,8.1,8.1,34,0.00,CLR,SCT,0.00,WeatherDisplay:10.37,2013-05-28 23:00:00,
2013-05-28 15:05:00,68.2,38.7,29.35,NNW,338,5.8,5.9,34,0.00,CLR,SCT,0.00,WeatherDisplay:10.37,2013-05-28 23:05:00,
2013-05-28 15:10:00,68.0,39.3,29.35,NW,315,8.1,8.1,35,0.00,CLR,SCT,0.00,WeatherDisplay:10.37,2013-05-28 23:10:00,
2013-05-28 15:15:00,68.2,38.7,29.35,North,0,8.1,8.1,34,0.00,CLR,SCT,0.00,WeatherDisplay:10.37,2013-05-28 23:15:00,
2013-05-28 15:20:00,68.0,38.6,29.35,NW,315,5.8,5.8,34,0.00,CLR,SCT,0.00,WeatherDisplay:10.37,2013-05-28 23:20:00,
2013-05-28 15:25:00,68.9,39.4,29.35,North,0,7.6,7.6,34,0.00,CLR,SCT,0.00,WeatherDisplay:10.37,2013-05-28 23:25:00,
2013-05-28 15:30:00,68.9,39.4,29.35,NNW,338,5.8,5.8,34,0.00,CLR,SCT,0.00,WeatherDisplay:10.37,2013-05-28 23:30:00,
2013-05-28 15:35:00,68.2,38.7,29.35,WNW,292,5.8,5.8,34,0.00,CLR,SCT,0.00,WeatherDisplay:10.37,2013-05-28 23:35:00,
2013-05-28 15:40:00,68.9,39.4,29.35,NW,315,8.1,8.1,34,0.00,CLR,SCT,0.00,WeatherDisplay:10.37,2013-05-28 23:40:00,
2013-05-28 15:45:00,68.5,39.0,29.35,NNW,338,6.9,6.9,34,0.00,CLR,SCT,0.00,WeatherDisplay:10.37,2013-05-28 23:45:00,
2013-05-28 15:50:00,68.5,39.0,29.35,NNW,338,5.8,5.8,34,0.00,CLR,SCT,0.00,WeatherDisplay:10.37,2013-05-28 23:50:00,
2013-05-28 15:55:00,68.5,39.0,29.35,NW,315,8.1,8.1,34,0.00,CLR,SCT,0.00,WeatherDisplay:10.37,2013-05-28 23:55:00,
2013-05-28 16:00:00,68.4,38.9,29.35,NNW,338,5.8,5.9,34,0.00,CLR,SCT,0.00,WeatherDisplay:10.37,2013-05-29 00:00:00,
2013-05-28 16:05:00,68.9,39.4,29.35,NW,315,6.9,6.9,34,0.00,CLR,SCT,0.00,WeatherDisplay:10.37,2013-05-29 00:05:00,
2013-05-28 16:10:00,68.4,38.9,29.35,NNW,338,8.1,8.1,34,0.00,CLR,SCT,0.00,WeatherDisplay:10.37,2013-05-29 00:10:00,
2013-05-28 16:15:00,69.1,39.5,29.35,NW,315,8.1,8.1,34,0.00,CLR,SCT,0.00,WeatherDisplay:10.37,2013-05-29 00:15:00,
2013-05-28 16:20:00,68.2,38.7,29.35,NW,315,8.1,8.1,34,0.00,CLR,SCT,0.00,WeatherDisplay:10.37,2013-05-29 00:20:00,
2013-05-28 16:25:00,68.9,39.4,29.35,North,0,8.1,8.1,34,0.00,CLR,SCT,0.00,WeatherDisplay:10.37,2013-05-29 00:25:00,
2013-05-28 16:30:00,68.4,38.9,29.35,NNW,338,6.9,6.9,34,0.00,CLR,SCT,0.00,WeatherDisplay:10.37,2013-05-29 00:30:00,
2013-05-28 16:35:00,68.5,39.0,29.35,WNW,292,7.6,7.6,34,0.00,CLR,SCT,0.00,WeatherDisplay:10.37,2013-05-29 00:35:00,
2013-05-28 16:40:00,69.1,39.5,29.35,NW,315,8.1,8.1,34,0.00,CLR,SCT,0.00,WeatherDisplay:10.37,2013-05-29 00:40:00,
2013-05-28 16:45:00,69.4,39.8,29.35,NNW,338,4.6,4.6,34,0.00,CLR,SCT,0.00,WeatherDisplay:10.37,2013-05-29 00:45:00,
2013-05-28 16:50:00,69.8,39.4,29.35,NW,315,6.2,6.2,33,0.00,CLR,SCT,0.00,WeatherDisplay:10.37,2013-05-29 00:50:00,
2013-05-28 16:55:00,69.6,40.0,29.35,NW,315,5.9,5.9,34,0.00,CLR,SCT,0.00,WeatherDisplay:10.37,2013-05-29 00:55:00,
2013-05-28 17:00:00,69.6,40.0,29.35,NNW,338,5.8,5.8,34,0.00,CLR,SCT,0.00,WeatherDisplay:10.37,2013-05-29 01:00:00,
2013-05-28 17:05:00,68.9,39.4,29.35,NW,315,8.1,8.1,34,0.00,CLR,SCT,0.00,WeatherDisplay:10.37,2013-05-29 01:05:00,
2013-05-28 17:10:00,69.3,39.7,29.35,NNW,338,5.8,5.8,34,0.00,CLR,SCT,0.00,WeatherDisplay:10.37,2013-05-29 01:10:00,
2013-05-28 17:15:00,68.9,39.4,29.35,NNW,338,5.8,5.8,34,0.00,CLR,SCT,0.00,WeatherDisplay:10.37,2013-05-29 01:15:00,
2013-05-28 17:20:00,68.4,38.9,29.32,North,0,5.8,5.8,34,0.00,CLR,SCT,0.00,WeatherDisplay:10.37,2013-05-29 01:20:00,
2013-05-28 17:25:00,67.3,38.7,29.32,NNW,338,9.2,9.2,35,0.00,CLR,SCT,0.00,WeatherDisplay:10.37,2013-05-29 01:25:00,
2013-05-28 17:30:00,67.5,38.8,29.32,NW,315,5.8,5.8,35,0.00,CLR,SCT,0.00,WeatherDisplay:10.37,2013-05-29 01:30:00,
2013-05-28 17:35:00,68.4,39.6,29.32,NNW,338,5.8,5.8,35,0.00,CLR,SCT,0.00,WeatherDisplay:10.37,2013-05-29 01:35:00,
2013-05-28 17:40:00,67.8,39.2,29.32,North,0,8.1,8.1,35,0.00,CLR,SCT,0.00,WeatherDisplay:10.37,2013-05-29 01:40:00,
2013-05-28 17:45:00,68.2,38.7,29.32,NNW,338,5.8,5.8,34,0.00,CLR,SCT,0.00,WeatherDisplay:10.37,2013-05-29 01:45:00,
2013-05-28 17:50:00,68.5,39.0,29.32,NNW,338,6.9,6.9,34,0.00,CLR,SCT,0.00,WeatherDisplay:10.37,2013-05-29 01:50:00,
2013-05-28 17:55:00,69.4,39.8,29.32,NW,315,4.0,4.0,34,0.00,CLR,SCT,0.00,WeatherDisplay:10.37,2013-05-29 01:55:00,
2013-05-28 18:00:00,69.6,40.0,29.32,NNW,338,8.1,8.1,34,0.00,CLR,SCT,0.00,WeatherDisplay:10.37,2013-05-29 02:00:00,
2013-05-28 18:05:00,69.4,39.8,29.32,NNW,338,10.4,10.4,34,0.00,CLR,SCT,0.00,WeatherDisplay:10.37,2013-05-29 02:05:00,
2013-05-28 18:10:00,70.0,40.3,29.32,NW,315,5.8,5.8,34,0.00,CLR,SCT,0.00,WeatherDisplay:10.37,2013-05-29 02:10:00,
2013-05-28 18:15:00,70.7,40.2,29.32,NW,315,5.9,5.9,33,0.00,CLR,SCT,0.00,WeatherDisplay:10.37,2013-05-29 02:15:00,
2013-05-28 18:20:00,70.9,40.3,29.32,NNW,338,5.8,5.8,33,0.00,CLR,SCT,0.00,WeatherDisplay:10.37,2013-05-29 02:20:00,
2013-05-28 18:25:00,70.5,39.2,29.32,NNW,338,6.2,6.2,32,0.00,CLR,SCT,0.00,WeatherDisplay:10.37,2013-05-29 02:25:00,
2013-05-28 18:30:00,70.2,38.9,29.32,NW,315,5.8,5.8,32,0.00,CLR,SCT,0.00,WeatherDisplay:10.37,2013-05-29 02:30:00,
2013-05-28 18:35:00,69.8,38.6,29.32,NNW,338,5.8,5.8,32,0.00,CLR,SCT,0.00,WeatherDisplay:10.37,2013-05-29 02:35:00,
2013-05-28 18:40:00,69.3,38.9,29.32,NNW,338,9.2,9.2,33,0.00,CLR,SCT,0.00,WeatherDisplay:10.37,2013-05-29 02:40:00,
2013-05-28 18:45:00,69.4,39.1,29.32,NNW,338,5.8,5.8,33,0.00,CLR,SCT,0.00,WeatherDisplay:10.37,2013-05-29 02:45:00,
2013-05-28 18:50:00,68.9,38.6,29.32,NW,315,8.1,8.1,33,0.00,CLR,SCT,0.00,WeatherDisplay:10.37,2013-05-29 02:50:00,
2013-05-28 18:55:00,68.7,38.4,29.32,NNW,338,5.9,5.9,33,0.00,CLR,SCT,0.00,WeatherDisplay:10.37,2013-05-29 02:55:00,
2013-05-28 19:00:00,68.9,38.6,29.32,NW,315,6.2,6.2,33,0.00,CLR,SCT,0.00,WeatherDisplay:10.37,2013-05-29 03:00:00,
2013-05-28 19:05:00,69.1,38.8,29.32,NW,315,4.9,4.9,33,0.00,CLR,SCT,0.00,WeatherDisplay:10.37,2013-05-29 03:05:00,
2013-05-28 19:10:00,69.1,38.8,29.32,NW,315,8.1,8.1,33,0.00,CLR,SCT,0.00,WeatherDisplay:10.37,2013-05-29 03:10:00,
2013-05-28 19:15:00,69.3,38.9,29.32,NNW,338,5.4,5.4,33,0.00,CLR,SCT,0.00,WeatherDisplay:10.37,2013-05-29 03:15:00,
2013-05-28 19:20:00,69.3,38.9,29.32,NW,315,8.1,8.1,33,0.00,CLR,SCT,0.00,WeatherDisplay:10.37,2013-05-29 03:20:00,
2013-05-28 19:26:00,69.1,38.8,29.32,NNW,338,7.1,7.1,33,0.00,CLR,SCT,0.00,WeatherDisplay:10.37,2013-05-29 03:26:00,
2013-05-28 19:31:00,69.1,38.8,29.32,North,0,6.9,6.9,33,0.00,CLR,SCT,0.00,WeatherDisplay:10.37,2013-05-29 03:31:00,
2013-05-28 19:36:00,69.3,39.7,29.32,NNW,338,5.8,5.8,34,0.00,CLR,SCT,0.00,WeatherDisplay:10.37,2013-05-29 03:36:00,
2013-05-28 19:41:00,69.4,39.8,29.32,NW,315,6.7,6.7,34,0.00,CLR,SCT,0.00,WeatherDisplay:10.37,2013-05-29 03:41:00,
2013-05-28 19:46:00,69.3,39.7,29.32,NW,315,5.8,5.8,34,0.00,CLR,SCT,0.00,WeatherDisplay:10.37,2013-05-29 03:46:00,
2013-05-28 19:51:00,69.1,38.8,29.32,NNW,338,6.9,6.9,33,0.00,CLR,SCT,0.00,WeatherDisplay:10.37,2013-05-29 03:51:00,
2013-05-28 19:56:00,68.9,38.6,29.32,NW,315,6.2,6.2,33,0.00,CLR,SCT,0.00,WeatherDisplay:10.37,2013-05-29 03:56:00,
2013-05-28 20:01:00,68.9,38.6,29.32,NNW,338,5.8,5.8,33,0.00,CLR,SCT,0.00,WeatherDisplay:10.37,2013-05-29 04:01:00,
2013-05-28 20:06:00,69.1,38.8,29.32,NW,315,5.9,5.9,33,0.00,CLR,SCT,0.00,WeatherDisplay:10.37,2013-05-29 04:06:00,
2013-05-28 20:11:00,69.1,38.8,29.32,NW,315,5.8,5.8,33,0.00,CLR,SCT,0.00,WeatherDisplay:10.37,2013-05-29 04:11:00,
2013-05-28 20:16:00,69.1,38.8,29.32,NW,315,4.6,4.6,33,0.00,CLR,SCT,0.00,WeatherDisplay:10.37,2013-05-29 04:16:00,
2013-05-28 20:21:00,68.9,38.6,29.32,NW,315,5.8,5.8,33,0.00,CLR,SCT,0.00,WeatherDisplay:10.37,2013-05-29 04:21:00,
2013-05-28 20:26:00,68.5,38.3,29.32,NNW,338,4.6,4.6,33,0.00,CLR,SCT,0.00,WeatherDisplay:10.37,2013-05-29 04:26:00,
2013-05-28 20:31:00,68.0,37.8,29.32,NW,315,4.9,4.9,33,0.00,CLR,SCT,0.00,WeatherDisplay:10.37,2013-05-29 04:31:00,
2013-05-28 20:36:00,68.2,38.0,29.32,NW,315,4.9,4.9,33,0.00,CLR,SCT,0.00,WeatherDisplay:10.37,2013-05-29 04:36:00,
2013-05-28 20:41:00,68.5,38.3,29.32,NNW,338,4.6,4.6,33,0.00,CLR,SCT,0.00,WeatherDisplay:10.37,2013-05-29 04:41:00,
2013-05-28 20:46:00,68.4,38.1,29.32,NW,315,5.8,5.8,33,0.00,CLR,SCT,0.00,WeatherDisplay:10.37,2013-05-29 04:46:00,
2013-05-28 20:51:00,68.5,38.3,29.32,NNW,338,4.0,4.0,33,0.00,CLR,SCT,0.00,WeatherDisplay:10.37,2013-05-29 04:51:00,
2013-05-28 20:56:00,68.4,38.1,29.32,NW,315,6.9,6.9,33,0.00,CLR,SCT,0.00,WeatherDisplay:10.37,2013-05-29 04:56:00,
2013-05-28 21:01:00,68.4,38.1,29.32,NW,315,4.0,4.0,33,0.00,CLR,SCT,0.00,WeatherDisplay:10.37,2013-05-29 05:01:00,
2013-05-28 21:06:00,68.0,37.8,29.32,NW,315,4.6,4.6,33,0.00,CLR,SCT,0.00,WeatherDisplay:10.37,2013-05-29 05:06:00,
2013-05-28 21:11:00,67.5,37.3,29.32,NW,315,4.6,4.6,33,0.00,CLR,SCT,0.00,WeatherDisplay:10.37,2013-05-29 05:11:00,
2013-05-28 21:16:00,67.3,37.2,29.32,NNW,338,5.8,5.8,33,0.00,CLR,SCT,0.00,WeatherDisplay:10.37,2013-05-29 05:16:00,
2013-05-28 21:21:00,66.9,36.9,29.32,NNW,338,5.8,5.8,33,0.00,CLR,SCT,0.00,WeatherDisplay:10.37,2013-05-29 05:21:00,
2013-05-28 21:26:00,66.7,36.7,29.32,NW,315,3.5,3.5,33,0.00,CLR,SCT,0.00,WeatherDisplay:10.37,2013-05-29 05:26:00,
2013-05-28 21:31:00,66.6,37.3,29.32,NW,315,4.6,4.6,34,0.00,CLR,SCT,0.00,WeatherDisplay:10.37,2013-05-29 05:31:00,
2013-05-28 21:36:00,66.2,37.0,29.32,NW,315,3.5,3.5,34,0.00,CLR,SCT,0.00,WeatherDisplay:10.37,2013-05-29 05:36:00,
2013-05-28 21:41:00,65.8,36.7,29.32,NW,315,4.6,4.6,34,0.00,CLR,SCT,0.00,WeatherDisplay:10.37,2013-05-29 05:41:00,
2013-05-28 21:46:00,65.7,36.5,29.32,NW,315,4.0,4.0,34,0.00,CLR,SCT,0.00,WeatherDisplay:10.37,2013-05-29 05:46:00,
2013-05-28 21:51:00,65.7,36.5,29.32,NNW,338,4.6,4.6,34,0.00,CLR,SCT,0.00,WeatherDisplay:10.37,2013-05-29 05:51:00,
2013-05-28 21:56:00,65.7,36.5,29.32,NW,315,3.5,3.5,34,0.00,CLR,SCT,0.00,WeatherDisplay:10.37,2013-05-29 05:56:00,
2013-05-28 22:01:00,65.5,36.4,29.32,NW,315,4.6,4.6,34,0.00,CLR,SCT,0.00,WeatherDisplay:10.37,2013-05-29 06:01:00,
2013-05-28 22:06:00,65.1,36.0,29.32,NW,315,3.5,3.5,34,0.00,CLR,SCT,0.00,WeatherDisplay:10.37,2013-05-29 06:06:00,
2013-05-28 22:11:00,64.8,35.7,29.32,NW,315,4.6,4.6,34,0.00,CLR,SCT,0.00,WeatherDisplay:10.37,2013-05-29 06:11:00,
2013-05-28 22:16:00,64.4,35.4,29.32,NW,315,4.6,4.6,34,0.00,CLR,SCT,0.00,WeatherDisplay:10.37,2013-05-29 06:16:00,
2013-05-28 22:21:00,64.0,35.1,29.32,NW,315,3.5,3.5,34,0.00,CLR,SCT,0.00,WeatherDisplay:10.37,2013-05-29 06:21:00,
2013-05-28 22:26:00,63.7,34.8,29.32,NW,315,2.6,2.6,34,0.00,CLR,SCT,0.00,WeatherDisplay:10.37,2013-05-29 06:26:00,
2013-05-28 22:31:00,63.3,34.4,29.32,NW,315,3.5,3.5,34,0.00,CLR,SCT,0.00,WeatherDisplay:10.37,2013-05-29 06:31:00,
2013-05-28 22:36:00,63.1,34.3,29.32,NW,315,2.3,2.3,34,0.00,CLR,SCT,0.00,WeatherDisplay:10.37,2013-05-29 06:36:00,
2013-05-28 22:41:00,62.6,33.8,29.32,NW,315,2.6,2.6,34,0.00,CLR,SCT,0.00,WeatherDisplay:10.37,2013-05-29 06:41:00,
2013-05-28 22:46:00,62.4,33.7,29.32,NW,315,3.6,3.6,34,0.00,CLR,SCT,0.00,WeatherDisplay:10.37,2013-05-29 06:46:00,
2013-05-28 22:51:00,62.2,33.5,29.32,NW,315,3.5,3.5,34,0.00,CLR,SCT,0.00,WeatherDisplay:10.37,2013-05-29 06:51:00,
2013-05-28 22:56:00,62.2,33.5,29.32,NW,315,3.6,3.6,34,0.00,CLR,SCT,0.00,WeatherDisplay:10.37,2013-05-29 06:56:00,
2013-05-28 23:01:00,62.1,33.3,29.32,NW,315,3.5,3.5,34,0.00,CLR,SCT,0.00,WeatherDisplay:10.37,2013-05-29 07:01:00,
2013-05-28 23:06:00,61.9,33.2,29.32,NW,315,3.5,3.5,34,0.00,CLR,SCT,0.00,WeatherDisplay:10.37,2013-05-29 07:06:00,
2013-05-28 23:11:00,61.5,32.9,29.32,NW,315,3.6,3.6,34,0.00,CLR,SCT,0.00,WeatherDisplay:10.37,2013-05-29 07:11:00,
2013-05-28 23:16:00,61.3,32.7,29.32,NW,315,3.5,3.5,34,0.00,CLR,SCT,0.00,WeatherDisplay:10.37,2013-05-29 07:16:00,
2013-05-28 23:21:00,61.3,32.7,29.32,NW,315,3.6,3.6,34,0.00,CLR,SCT,0.00,WeatherDisplay:10.37,2013-05-29 07:21:00,
2013-05-28 23:26:00,61.2,32.5,29.32,NW,315,3.6,3.6,34,0.00,CLR,SCT,0.00,WeatherDisplay:10.37,2013-05-29 07:26:00,
2013-05-28 23:31:00,61.2,32.5,29.32,NW,315,3.5,3.5,34,0.00,CLR,SCT,0.00,WeatherDisplay:10.37,2013-05-29 07:31:00,
2013-05-28 23:36:00,61.2,32.5,29.32,NW,315,3.5,3.5,34,0.00,CLR,SCT,0.00,WeatherDisplay:10.37,2013-05-29 07:36:00,
2013-05-28 23:41:00,61.0,32.4,29.32,NW,315,2.6,0.0,34,0.00,CLR,SCT,0.00,WeatherDisplay:10.37,2013-05-29 07:41:00,
2013-05-28 23:46:00,60.8,32.2,29.32,NW,315,2.3,0.0,34,0.00,CLR,SCT,0.00,WeatherDisplay:10.37,2013-05-29 07:46:00,
2013-05-28 23:51:00,60.3,32.5,29.32,NW,315,0.0,0.0,35,0.00,CLR,SCT,0.00,WeatherDisplay:10.37,2013-05-29 07:51:00,
2013-05-28 23:56:00,59.5,31.8,29.32,NW,315,0.0,0.0,35,0.00,CLR,SCT,0.00,WeatherDisplay:10.37,2013-05-29 07:56:00,